Time;durP1;ratioP1;P1;durP2;ratioP2;P2;SDS_P1;SDS_P2;PMS_P1;PMS_P2;Temp;Humidity;BMP_temperature;BMP_pressure;BME280_temperature;BME280_humidity;BME280_pressure;Samples;Min_cycle;Max_cycle;Signal;HPM_P1;HPM_P2
2021/05/04 00:01:27;;;;;;;;;1.00;1.00;;;;;;;;5046331;28;10087;-83
2021/05/04 00:03:54;;;;;;;;;1.00;1.00;;;;;;;;5043303;28;10380;-80
2021/05/04 00:06:21;;;;;;;;;1.50;1.50;;;;;;;;5046785;28;10577;-81
2021/05/04 00:08:49;;;;;;;;;1.25;0.50;;;;;;;;5048154;28;10496;-80
2021/05/04 00:11:16;;;;;;;;;2.75;2.75;;;;;;;;5055586;28;10667;-80
2021/05/04 00:13:43;;;;;;;;;2.75;2.00;;;;;;;;5026578;28;10749;-79
2021/05/04 00:16:10;;;;;;;;;1.75;1.75;;;;;;;;5043190;28;10753;-79
2021/05/04 00:18:37;;;;;;;;;1.00;1.00;;;;;;;;5047997;28;10784;-80
2021/05/04 00:21:04;;;;;;;;;3.00;3.00;;;;;;;;5043933;28;10800;-80
2021/05/04 00:23:31;;;;;;;;;1.50;1.25;;;;;;;;5044873;28;10767;-80
2021/05/04 00:25:59;;;;;;;;;1.00;1.00;;;;;;;;5037288;28;10730;-80
2021/05/04 00:28:26;;;;;;;;;2.00;2.00;;;;;;;;5043138;28;10784;-81
2021/05/04 00:30:53;;;;;;;;;1.25;1.25;;;;;;;;5042817;28;10881;-81
2021/05/04 00:33:20;;;;;;;;;2.25;2.25;;;;;;;;5043692;28;10915;-81
2021/05/04 00:35:48;;;;;;;;;2.00;2.00;;;;;;;;5044063;28;11730;-81
2021/05/04 00:38:15;;;;;;;;;5.25;2.00;;;;;;;;5043912;28;11189;-82
2021/05/04 00:40:42;;;;;;;;;2.00;2.00;;;;;;;;5033006;28;11083;-79
2021/05/04 00:43:10;;;;;;;;;1.00;1.00;;;;;;;;5041919;28;10990;-79
2021/05/04 00:45:37;;;;;;;;;1.75;1.00;;;;;;;;5043667;28;10910;-79
2021/05/04 00:48:05;;;;;;;;;1.25;1.00;;;;;;;;5025133;28;11058;-80
2021/05/04 00:50:32;;;;;;;;;3.00;1.75;;;;;;;;5043283;28;11009;-79
2021/05/04 00:52:59;;;;;;;;;1.00;1.00;;;;;;;;5047950;28;11092;-79
2021/05/04 00:55:27;;;;;;;;;2.50;2.50;;;;;;;;5044775;28;11007;-79
2021/05/04 00:57:55;;;;;;;;;1.00;1.00;;;;;;;;5043582;28;11226;-79
2021/05/04 01:00:23;;;;;;;;;2.25;2.00;;;;;;;;5048612;28;11002;-79
2021/05/04 01:02:51;;;;;;;;;0.00;0.00;;;;;;;;5043535;28;11093;-80
2021/05/04 01:05:18;;;;;;;;;3.00;1.75;;;;;;;;5011885;28;10988;-78
2021/05/04 01:07:45;;;;;;;;;1.00;1.00;;;;;;;;5025845;28;11890;-79
2021/05/04 01:10:12;;;;;;;;;2.00;0.50;;;;;;;;5046190;28;11143;-77
2021/05/04 01:12:39;;;;;;;;;2.00;2.00;;;;;;;;5025152;28;11831;-77
2021/05/04 01:15:07;;;;;;;;;1.00;1.00;;;;;;;;5006375;28;11086;-82
2021/05/04 01:17:37;;;;;;;;;1.50;1.00;;;;;;;;5041876;28;11148;-80
2021/05/04 01:20:05;;;;;;;;;1.00;1.00;;;;;;;;5058305;28;11764;-78
2021/05/04 01:22:34;;;;;;;;;1.25;1.00;;;;;;;;5042197;28;11101;-78
2021/05/04 01:25:01;;;;;;;;;1.25;1.25;;;;;;;;5057640;28;11817;-79
2021/05/04 01:27:28;;;;;;;;;0.00;0.00;;;;;;;;5042138;28;11253;-79
2021/05/04 01:29:55;;;;;;;;;2.00;2.00;;;;;;;;5042069;28;10918;-79
2021/05/04 01:32:22;;;;;;;;;1.00;1.00;;;;;;;;5049787;28;11062;-79
2021/05/04 01:34:51;;;;;;;;;1.50;1.50;;;;;;;;5041473;28;10912;-81
2021/05/04 01:37:18;;;;;;;;;2.00;1.00;;;;;;;;5041399;28;10989;-81
2021/05/04 01:39:48;;;;;;;;;0.75;0.75;;;;;;;;5046372;28;10914;-80
2021/05/04 01:42:16;;;;;;;;;1.75;1.75;;;;;;;;5042579;28;10916;-79
2021/05/04 01:44:44;;;;;;;;;1.75;1.75;;;;;;;;5041769;28;10853;-81
2021/05/04 01:47:11;;;;;;;;;3.50;1.00;;;;;;;;5042705;28;10998;-80
2021/05/04 01:49:39;;;;;;;;;1.50;1.50;;;;;;;;5043517;28;10967;-80
2021/05/04 01:52:08;;;;;;;;;1.00;1.00;;;;;;;;5051222;28;10884;-80
2021/05/04 01:54:35;;;;;;;;;1.75;1.75;;;;;;;;5045503;28;10898;-83
2021/05/04 01:57:05;;;;;;;;;2.00;2.00;;;;;;;;5030568;28;10904;-86
2021/05/04 01:59:32;;;;;;;;;2.00;2.00;;;;;;;;5035915;28;10977;-81
2021/05/04 02:01:59;;;;;;;;;1.25;1.25;;;;;;;;5052870;28;10899;-80
2021/05/04 02:04:31;;;;;;;;;1.00;1.00;;;;;;;;5050189;28;10922;-82
2021/05/04 02:06:58;;;;;;;;;2.00;2.00;;;;;;;;5038508;28;10764;-79
2021/05/04 02:09:25;;;;;;;;;2.00;2.00;;;;;;;;5043816;28;10902;-79
2021/05/04 02:11:52;;;;;;;;;1.50;1.50;;;;;;;;5053990;28;10811;-82
2021/05/04 02:14:20;;;;;;;;;1.00;1.00;;;;;;;;5040449;28;10914;-80
2021/05/04 02:16:47;;;;;;;;;1.25;1.25;;;;;;;;5042209;28;10925;-81
2021/05/04 02:19:14;;;;;;;;;3.00;1.75;;;;;;;;5040547;28;11606;-79
2021/05/04 02:21:41;;;;;;;;;1.50;1.50;;;;;;;;5053059;28;10841;-79
2021/05/04 02:24:08;;;;;;;;;1.00;1.00;;;;;;;;5041334;28;10836;-79
2021/05/04 02:26:36;;;;;;;;;1.00;1.00;;;;;;;;5045203;28;11595;-82
2021/05/04 02:29:03;;;;;;;;;0.00;0.00;;;;;;;;5042444;28;10837;-83
2021/05/04 02:31:32;;;;;;;;;0.25;0.25;;;;;;;;5040081;28;10809;-81
2021/05/04 02:33:58;;;;;;;;;0.00;0.00;;;;;;;;5042210;28;10817;-80
2021/05/04 02:36:25;;;;;;;;;0.75;0.75;;;;;;;;5041441;28;11502;-80
2021/05/04 02:38:52;;;;;;;;;1.00;1.00;;;;;;;;5042785;28;10829;-80
2021/05/04 02:41:19;;;;;;;;;1.50;1.50;;;;;;;;5050806;28;10932;-80
2021/05/04 02:43:46;;;;;;;;;3.00;0.00;;;;;;;;5041735;28;10973;-78
2021/05/04 02:46:13;;;;;;;;;0.50;0.50;;;;;;;;5024002;28;10752;-79
2021/05/04 02:48:42;;;;;;;;;1.75;1.75;;;;;;;;5044536;28;10962;-80
2021/05/04 02:51:11;;;;;;;;;1.00;1.00;;;;;;;;5045569;28;10972;-79
2021/05/04 02:53:38;;;;;;;;;2.00;2.00;;;;;;;;5048801;28;10852;-79
2021/05/04 02:56:06;;;;;;;;;1.00;1.00;;;;;;;;5024246;28;10865;-79
2021/05/04 02:58:33;;;;;;;;;1.75;1.00;;;;;;;;5037781;28;11021;-79
2021/05/04 03:01:01;;;;;;;;;2.50;1.25;;;;;;;;5050875;28;10737;-79
2021/05/04 03:03:28;;;;;;;;;1.00;1.00;;;;;;;;5045166;28;10761;-83
2021/05/04 03:05:56;;;;;;;;;1.00;1.00;;;;;;;;5045635;28;10747;-83
2021/05/04 03:08:23;;;;;;;;;1.25;1.25;;;;;;;;5045505;28;10790;-79
2021/05/04 03:10:50;;;;;;;;;1.00;1.00;;;;;;;;5048314;28;10778;-79
2021/05/04 03:13:22;;;;;;;;;1.50;1.00;;;;;;;;5046164;28;10772;-79
2021/05/04 03:15:50;;;;;;;;;1.00;1.00;;;;;;;;5043844;28;10935;-78
2021/05/04 03:18:17;;;;;;;;;1.00;1.00;;;;;;;;5045747;28;10875;-79
2021/05/04 03:20:44;;;;;;;;;1.00;1.00;;;;;;;;5009511;28;10760;-79
2021/05/04 03:23:13;;;;;;;;;1.00;1.00;;;;;;;;5057610;28;10888;-80
2021/05/04 03:25:41;;;;;;;;;4.50;2.00;;;;;;;;5057004;28;10678;-81
2021/05/04 03:28:09;;;;;;;;;1.25;1.25;;;;;;;;5044144;28;10782;-80
2021/05/04 03:30:36;;;;;;;;;1.00;1.00;;;;;;;;5058858;28;10642;-80
2021/05/04 03:33:04;;;;;;;;;1.00;1.00;;;;;;;;5026765;28;10692;-79
2021/05/04 03:35:31;;;;;;;;;1.75;0.00;;;;;;;;5045107;28;10694;-80
2021/05/04 03:37:58;;;;;;;;;0.25;0.25;;;;;;;;5046077;28;10631;-80
2021/05/04 03:40:26;;;;;;;;;1.00;1.00;;;;;;;;5052258;28;10690;-80
2021/05/04 03:42:53;;;;;;;;;1.00;1.00;;;;;;;;5049223;28;10625;-79
2021/05/04 03:45:20;;;;;;;;;2.50;0.50;;;;;;;;5044897;28;10709;-79
2021/05/04 03:47:47;;;;;;;;;1.25;1.25;;;;;;;;5052723;28;10678;-81
2021/05/04 03:50:16;;;;;;;;;1.00;1.00;;;;;;;;5026179;28;10752;-79
2021/05/04 03:52:44;;;;;;;;;1.00;1.00;;;;;;;;5048991;28;10582;-80
2021/05/04 03:55:12;;;;;;;;;1.00;1.00;;;;;;;;5052871;28;10686;-78
2021/05/04 03:57:40;;;;;;;;;1.00;1.00;;;;;;;;5033855;28;10649;-79
2021/05/04 04:00:09;;;;;;;;;0.00;0.00;;;;;;;;5029905;28;10538;-82
2021/05/04 04:02:36;;;;;;;;;1.00;1.00;;;;;;;;5045794;28;10575;-80
2021/05/04 04:05:04;;;;;;;;;0.00;0.00;;;;;;;;5045821;28;10625;-81
2021/05/04 04:07:31;;;;;;;;;0.75;0.75;;;;;;;;5042721;28;10539;-80
2021/05/04 04:09:58;;;;;;;;;0.25;0.25;;;;;;;;5014541;28;10452;-80
2021/05/04 04:12:25;;;;;;;;;1.25;1.25;;;;;;;;5043776;28;10649;-85
2021/05/04 04:14:54;;;;;;;;;1.00;1.00;;;;;;;;5045611;28;10535;-83
2021/05/04 04:17:21;;;;;;;;;0.50;0.50;;;;;;;;5027990;28;10482;-81
2021/05/04 04:19:48;;;;;;;;;1.00;1.00;;;;;;;;5045031;28;10487;-82
2021/05/04 04:22:16;;;;;;;;;1.75;0.50;;;;;;;;5047759;28;10634;-81
2021/05/04 04:24:43;;;;;;;;;0.50;0.50;;;;;;;;5044834;28;10529;-82
2021/05/04 04:27:10;;;;;;;;;1.00;1.00;;;;;;;;5036443;28;10612;-83
2021/05/04 04:29:38;;;;;;;;;1.00;1.00;;;;;;;;5043239;28;10815;-84
2021/05/04 04:32:06;;;;;;;;;1.25;1.25;;;;;;;;5044819;28;10341;-85
2021/05/04 04:34:33;;;;;;;;;0.25;0.25;;;;;;;;5024850;28;10655;-84
2021/05/04 04:37:00;;;;;;;;;4.50;2.00;;;;;;;;5046958;28;10347;-83
2021/05/04 04:39:27;;;;;;;;;0.50;0.50;;;;;;;;5051445;28;10493;-84
2021/05/04 04:41:54;;;;;;;;;1.00;1.00;;;;;;;;5055259;28;10432;-81
2021/05/04 04:44:21;;;;;;;;;2.00;1.00;;;;;;;;5044752;28;10404;-81
2021/05/04 04:46:48;;;;;;;;;1.00;1.00;;;;;;;;5042341;28;11735;-83
2021/05/04 04:49:17;;;;;;;;;1.25;1.25;;;;;;;;5043623;28;10678;-83
2021/05/04 04:51:45;;;;;;;;;0.50;0.50;;;;;;;;5043584;28;10626;-79
2021/05/04 04:54:12;;;;;;;;;1.00;1.00;;;;;;;;5050545;28;10559;-78
2021/05/04 04:56:40;;;;;;;;;1.00;1.00;;;;;;;;5050213;28;10596;-83
2021/05/04 04:59:07;;;;;;;;;2.00;0.00;;;;;;;;5043012;28;10723;-79
2021/05/04 05:01:35;;;;;;;;;1.00;1.00;;;;;;;;5052024;28;10566;-82
2021/05/04 05:04:02;;;;;;;;;1.00;1.00;;;;;;;;5023121;28;10541;-78
2021/05/04 05:06:31;;;;;;;;;1.00;1.00;;;;;;;;5044858;28;10407;-78
2021/05/04 05:08:58;;;;;;;;;2.00;1.00;;;;;;;;5021392;28;10363;-76
2021/05/04 05:11:25;;;;;;;;;3.00;1.50;;;;;;;;5027816;28;10528;-79
2021/05/04 05:13:52;;;;;;;;;2.00;1.00;;;;;;;;5042600;28;10387;-74
2021/05/04 05:16:21;;;;;;;;;1.00;1.00;;;;;;;;5041686;28;10233;-73
2021/05/04 05:18:48;;;;;;;;;1.75;1.75;;;;;;;;5023033;28;10434;-73
2021/05/04 05:21:16;;;;;;;;;1.00;1.00;;;;;;;;5042933;28;10330;-78
2021/05/04 05:23:44;;;;;;;;;2.00;2.00;;;;;;;;5044928;28;10313;-77
2021/05/04 05:26:12;;;;;;;;;1.25;1.25;;;;;;;;5047677;28;10324;-78
2021/05/04 05:28:39;;;;;;;;;1.00;1.00;;;;;;;;5043126;28;10331;-75
2021/05/04 05:31:06;;;;;;;;;1.75;1.75;;;;;;;;5044440;28;10259;-75
2021/05/04 05:33:33;;;;;;;;;1.00;1.00;;;;;;;;5049569;28;10325;-71
2021/05/04 05:36:00;;;;;;;;;1.00;1.00;;;;;;;;5059435;28;10376;-74
2021/05/04 05:38:28;;;;;;;;;3.50;1.00;;;;;;;;5057882;28;10436;-74
2021/05/04 05:40:56;;;;;;;;;1.75;1.75;;;;;;;;5047618;28;10421;-73
2021/05/04 05:43:23;;;;;;;;;1.50;1.50;;;;;;;;5044231;28;10342;-73
2021/05/04 05:45:51;;;;;;;;;1.00;1.00;;;;;;;;5049377;28;10289;-82
2021/05/04 05:48:18;;;;;;;;;0.00;0.00;;;;;;;;5055258;28;10374;-77
2021/05/04 05:50:45;;;;;;;;;2.00;2.00;;;;;;;;5025212;28;10122;-77
2021/05/04 05:53:13;;;;;;;;;1.50;1.50;;;;;;;;5041007;28;10301;-75
2021/05/04 05:55:40;;;;;;;;;1.00;1.00;;;;;;;;5050505;28;10242;-74
2021/05/04 05:58:08;;;;;;;;;1.25;1.00;;;;;;;;5037946;28;10247;-74
2021/05/04 06:00:35;;;;;;;;;2.25;1.00;;;;;;;;5056568;28;10092;-73
2021/05/04 06:03:04;;;;;;;;;1.00;1.00;;;;;;;;5061189;28;10134;-71
2021/05/04 06:05:32;;;;;;;;;1.00;1.00;;;;;;;;5060965;28;11420;-75
2021/05/04 06:07:59;;;;;;;;;1.00;1.00;;;;;;;;5056191;28;10255;-69
2021/05/04 06:10:26;;;;;;;;;1.00;1.00;;;;;;;;5061099;28;10242;-73
2021/05/04 06:12:58;;;;;;;;;1.00;1.00;;;;;;;;5062053;28;10113;-74
2021/05/04 06:15:26;;;;;;;;;3.00;1.00;;;;;;;;5061430;28;10208;-71
2021/05/04 06:17:54;;;;;;;;;2.00;1.00;;;;;;;;5054512;28;10011;-72
2021/05/04 06:20:21;;;;;;;;;0.00;0.00;;;;;;;;5042654;28;10185;-72
2021/05/04 06:22:48;;;;;;;;;1.00;1.00;;;;;;;;5040602;28;10121;-72
2021/05/04 06:25:15;;;;;;;;;1.00;1.00;;;;;;;;5042327;28;10287;-72
2021/05/04 06:27:42;;;;;;;;;1.25;1.25;;;;;;;;5041618;28;9967;-72
2021/05/04 06:30:12;;;;;;;;;1.00;1.00;;;;;;;;5042019;28;10178;-72
2021/05/04 06:32:40;;;;;;;;;1.00;1.00;;;;;;;;5042735;28;10127;-74
2021/05/04 06:35:08;;;;;;;;;1.00;1.00;;;;;;;;5023446;28;10041;-69
2021/05/04 06:37:35;;;;;;;;;1.75;1.00;;;;;;;;5042326;28;9850;-74
2021/05/04 06:40:04;;;;;;;;;1.00;1.00;;;;;;;;5043015;28;10021;-73
2021/05/04 06:42:30;;;;;;;;;1.00;1.00;;;;;;;;5056884;28;10381;-72
2021/05/04 06:44:57;;;;;;;;;0.75;0.75;;;;;;;;5057890;28;9962;-72
2021/05/04 06:47:24;;;;;;;;;0.00;0.00;;;;;;;;5059554;28;9851;-72
2021/05/04 06:49:52;;;;;;;;;0.00;0.00;;;;;;;;5060437;28;9859;-72
2021/05/04 06:52:19;;;;;;;;;1.00;1.00;;;;;;;;5061602;28;9882;-73
2021/05/04 06:54:46;;;;;;;;;2.00;0.00;;;;;;;;5062157;28;9919;-73
2021/05/04 06:57:13;;;;;;;;;0.50;0.50;;;;;;;;5060028;28;9920;-73
2021/05/04 06:59:40;;;;;;;;;0.00;0.00;;;;;;;;5057870;28;9784;-73
2021/05/04 07:02:07;;;;;;;;;1.00;1.00;;;;;;;;5056539;28;9801;-73
2021/05/04 07:04:34;;;;;;;;;0.00;0.00;;;;;;;;5060450;28;10923;-69
2021/05/04 07:07:02;;;;;;;;;1.00;1.00;;;;;;;;5060179;28;9766;-71
2021/05/04 07:09:29;;;;;;;;;1.00;1.00;;;;;;;;5056067;28;9841;-74
2021/05/04 07:11:56;;;;;;;;;0.50;0.50;;;;;;;;5060854;28;9679;-74
2021/05/04 07:14:24;;;;;;;;;0.25;0.25;;;;;;;;5059937;28;9715;-73
2021/05/04 07:16:51;;;;;;;;;1.50;1.00;;;;;;;;5056708;28;9692;-74
2021/05/04 07:19:18;;;;;;;;;1.00;1.00;;;;;;;;5059735;28;9790;-73
2021/05/04 07:21:45;;;;;;;;;2.00;2.00;;;;;;;;5057190;28;9907;-74
2021/05/04 07:24:13;;;;;;;;;0.25;0.25;;;;;;;;5060395;28;9872;-73
2021/05/04 07:26:40;;;;;;;;;1.25;1.25;;;;;;;;5058690;28;9714;-74
2021/05/04 07:29:07;;;;;;;;;1.00;1.00;;;;;;;;5061191;28;9850;-74
2021/05/04 07:31:34;;;;;;;;;1.75;1.75;;;;;;;;5057164;28;9959;-74
2021/05/04 07:34:01;;;;;;;;;1.00;1.00;;;;;;;;5058438;28;9873;-72
2021/05/04 07:36:31;;;;;;;;;0.50;0.50;;;;;;;;5063429;28;9767;-73
2021/05/04 07:38:58;;;;;;;;;1.00;1.00;;;;;;;;5065618;28;9624;-73
2021/05/04 07:41:26;;;;;;;;;0.75;0.75;;;;;;;;5064504;28;9721;-73
2021/05/04 07:43:53;;;;;;;;;0.50;0.50;;;;;;;;5062969;28;9662;-73
2021/05/04 07:46:20;;;;;;;;;3.00;1.75;;;;;;;;5054403;28;9646;-73
2021/05/04 07:48:47;;;;;;;;;0.25;0.25;;;;;;;;5059717;28;9757;-74
2021/05/04 07:51:14;;;;;;;;;0.50;0.50;;;;;;;;5058851;28;9458;-74
2021/05/04 07:53:41;;;;;;;;;0.25;0.25;;;;;;;;5061196;28;9502;-74
2021/05/04 07:56:08;;;;;;;;;0.00;0.00;;;;;;;;5063566;28;9492;-73
2021/05/04 07:58:36;;;;;;;;;0.33;0.33;;;;;;;;5062457;28;10160;-74
2021/05/04 08:01:03;;;;;;;;;3.67;0.00;;;;;;;;5062476;28;9355;-73
2021/05/04 08:03:30;;;;;;;;;0.00;0.00;;;;;;;;5059450;28;9435;-74
2021/05/04 08:05:57;;;;;;;;;0.00;0.00;;;;;;;;5061242;28;9358;-73
2021/05/04 08:08:24;;;;;;;;;2.33;1.00;;;;;;;;5059395;28;9503;-74
2021/05/04 08:10:51;;;;;;;;;0.00;0.00;;;;;;;;5063321;28;9350;-73
2021/05/04 08:13:20;;;;;;;;;2.33;1.00;;;;;;;;5065023;28;9287;-73
2021/05/04 08:15:50;;;;;;;;;1.00;1.00;;;;;;;;5062045;28;9315;-72
2021/05/04 08:18:17;;;;;;;;;1.00;1.00;;;;;;;;5061946;28;9323;-73
2021/05/04 08:20:48;;;;;;;;;1.33;1.33;;;;;;;;5063632;28;9296;-70
2021/05/04 08:23:16;;;;;;;;;3.00;1.00;;;;;;;;5059991;28;10205;-72
2021/05/04 08:25:44;;;;;;;;;1.00;1.00;;;;;;;;5063091;28;9341;-72
2021/05/04 08:28:12;;;;;;;;;2.00;0.33;;;;;;;;5043957;28;9384;-73
2021/05/04 08:30:38;;;;;;;;;1.00;1.00;;;;;;;;5045597;28;9343;-71
2021/05/04 08:33:07;;;;;;;;;1.00;1.00;;;;;;;;5061086;28;10146;-72
2021/05/04 08:35:34;;;;;;;;;0.67;0.67;;;;;;;;5043598;28;10166;-73
2021/05/04 08:38:01;;;;;;;;;1.00;1.00;;;;;;;;5061858;28;9176;-73
2021/05/04 08:40:28;;;;;;;;;2.00;0.67;;;;;;;;5056811;28;9288;-74
2021/05/04 08:42:55;;;;;;;;;0.67;0.33;;;;;;;;5064289;28;9101;-73
2021/05/04 08:45:22;;;;;;;;;2.00;1.00;;;;;;;;5031084;28;9253;-74
2021/05/04 08:47:51;;;;;;;;;1.33;1.33;;;;;;;;5050610;28;9091;-73
2021/05/04 08:50:21;;;;;;;;;1.33;1.33;;;;;;;;5059877;28;9178;-73
2021/05/04 08:52:49;;;;;;;;;4.00;1.00;;;;;;;;5064732;28;9182;-74
2021/05/04 08:55:17;;;;;;;;;0.00;0.00;;;;;;;;5061681;28;9086;-73
2021/05/04 08:57:44;;;;;;;;;1.00;1.00;;;;;;;;5052321;28;8916;-72
2021/05/04 09:00:13;;;;;;;;;1.00;1.00;;;;;;;;5042497;28;8950;-73
2021/05/04 09:03:00;;;;;;;;;1.00;1.00;;;;;;;;5043292;28;9117;-73
2021/05/04 09:05:36;;;;;;;;;0.00;0.00;;;;;;;;5044170;28;9034;-72
2021/05/04 09:08:08;;;;;;;;;0.67;0.00;;;;;;;;5025082;28;9959;-72
2021/05/04 09:10:39;;;;;;;;;1.00;1.00;;;;;;;;5043639;28;9257;-72
2021/05/04 09:13:19;;;;;;;;;4.33;1.00;;;;;;;;5043006;28;9279;-71
2021/05/04 09:21:42;;;;;;;;;0.00;0.00;;;;;;;;5032445;28;9281;-72
2021/05/04 09:24:21;;;;;;;;;1.00;1.00;;;;;;;;5056537;28;9075;-72
2021/05/04 09:26:49;;;;;;;;;1.00;1.00;;;;;;;;5061994;28;9097;-70
2021/05/04 09:29:15;;;;;;;;;0.33;0.33;;;;;;;;5061253;28;9247;-73
2021/05/04 09:31:43;;;;;;;;;3.00;1.00;;;;;;;;5057322;28;9035;-72
2021/05/04 09:34:12;;;;;;;;;1.67;1.67;;;;;;;;5048270;28;9184;-74
2021/05/04 09:36:45;;;;;;;;;3.00;2.00;;;;;;;;5042930;28;9189;-74
2021/05/04 09:39:13;;;;;;;;;1.67;1.00;;;;;;;;5054890;28;9163;-72
2021/05/04 09:41:40;;;;;;;;;2.67;1.67;;;;;;;;5061902;28;8962;-73
2021/05/04 09:44:07;;;;;;;;;2.33;1.00;;;;;;;;5058315;28;9095;-72
2021/05/04 09:46:47;;;;;;;;;2.75;2.25;;;;;;;;5041918;28;9005;-72
2021/05/04 09:49:31;;;;;;;;;4.50;1.25;;;;;;;;5042574;28;8997;-73
2021/05/04 09:52:32;;;;;;;;;1.00;1.00;;;;;;;;5051732;28;8979;-73
2021/05/04 09:55:04;;;;;;;;;0.75;0.75;;;;;;;;5061167;28;9017;-73
2021/05/04 09:57:36;;;;;;;;;1.25;1.25;;;;;;;;5063141;28;8896;-74
2021/05/04 10:00:07;;;;;;;;;1.00;1.00;;;;;;;;5053637;28;8886;-73
2021/05/04 10:02:35;;;;;;;;;2.25;1.00;;;;;;;;5042337;28;8795;-72
2021/05/04 10:05:03;;;;;;;;;3.25;2.00;;;;;;;;5046195;28;9760;-73
2021/05/04 10:07:32;;;;;;;;;2.25;1.00;;;;;;;;5062091;28;8872;-73
2021/05/04 10:10:00;;;;;;;;;2.00;0.75;;;;;;;;5057188;28;8974;-74
2021/05/04 10:12:29;;;;;;;;;0.00;0.00;;;;;;;;5061884;28;8868;-74
2021/05/04 10:14:59;;;;;;;;;0.25;0.25;;;;;;;;5062646;28;8848;-73
2021/05/04 10:17:26;;;;;;;;;0.00;0.00;;;;;;;;5061761;28;8852;-73
2021/05/04 10:19:54;;;;;;;;;3.00;1.75;;;;;;;;5059787;28;9112;-74
2021/05/04 10:22:23;;;;;;;;;1.75;1.00;;;;;;;;5047052;28;8888;-72
2021/05/04 10:24:52;;;;;;;;;0.00;0.00;;;;;;;;5060743;28;8873;-73
2021/05/04 10:27:20;;;;;;;;;1.00;1.00;;;;;;;;5041070;28;8914;-74
2021/05/04 10:29:52;;;;;;;;;1.00;1.00;;;;;;;;5055047;28;9579;-74
2021/05/04 10:32:52;;;;;;;;;2.00;1.00;;;;;;;;5061710;28;10019;-74
2021/05/04 10:35:42;;;;;;;;;2.25;1.00;;;;;;;;5053881;28;8857;-74
2021/05/04 10:38:10;;;;;;;;;0.00;0.00;;;;;;;;5061343;28;8870;-74
2021/05/04 10:40:40;;;;;;;;;1.00;1.00;;;;;;;;5055165;28;8896;-73
2021/05/04 10:43:40;;;;;;;;;0.50;0.00;;;;;;;;5042703;28;8880;-74
2021/05/04 10:46:12;;;;;;;;;0.25;0.25;;;;;;;;5059233;28;8882;-73
2021/05/04 10:48:45;;;;;;;;;1.50;1.00;;;;;;;;5059144;28;8832;-73
2021/05/04 10:51:14;;;;;;;;;3.50;1.75;;;;;;;;5060749;28;8852;-73
2021/05/04 10:54:05;;;;;;;;;1.25;1.25;;;;;;;;5061577;28;8844;-73
2021/05/04 10:56:57;;;;;;;;;1.00;1.00;;;;;;;;5057362;28;9440;-74
2021/05/04 10:59:46;;;;;;;;;1.00;1.00;;;;;;;;5059583;28;8860;-74
2021/05/04 11:02:30;;;;;;;;;2.75;1.00;;;;;;;;5061412;28;8951;-73
2021/05/04 11:04:58;;;;;;;;;4.75;2.00;;;;;;;;5060339;28;8868;-72
2021/05/04 11:07:52;;;;;;;;;1.50;1.00;;;;;;;;5061647;28;8872;-74
2021/05/04 11:10:19;;;;;;;;;0.75;0.75;;;;;;;;5054427;28;8946;-73
2021/05/04 11:12:46;;;;;;;;;0.00;0.00;;;;;;;;5059291;28;8874;-73
2021/05/04 11:15:21;;;;;;;;;1.50;1.50;;;;;;;;5065289;28;8853;-73
2021/05/04 11:17:48;;;;;;;;;0.75;0.75;;;;;;;;5060831;28;8879;-78
2021/05/04 11:20:37;;;;;;;;;2.50;1.00;;;;;;;;5059558;28;8882;-73
2021/05/04 11:23:05;;;;;;;;;2.50;1.00;;;;;;;;5042704;28;9046;-73
2021/05/04 11:25:33;;;;;;;;;0.50;0.50;;;;;;;;5045555;28;8940;-74
2021/05/04 11:28:02;;;;;;;;;3.75;0.75;;;;;;;;5045468;28;9660;-74
2021/05/04 11:30:34;;;;;;;;;1.25;0.25;;;;;;;;5044109;28;8880;-73
2021/05/04 11:33:24;;;;;;;;;0.25;0.25;;;;;;;;5063230;28;8890;-73
2021/05/04 11:35:51;;;;;;;;;0.00;0.00;;;;;;;;5057528;28;8891;-74
2021/05/04 11:38:22;;;;;;;;;2.00;0.25;;;;;;;;5065633;28;8864;-74
2021/05/04 11:40:49;;;;;;;;;1.50;0.75;;;;;;;;5051142;28;8959;-73
2021/05/04 11:43:19;;;;;;;;;5.25;1.50;;;;;;;;5044982;28;8905;-74
2021/05/04 11:45:46;;;;;;;;;2.25;1.00;;;;;;;;5045572;28;9071;-74
2021/05/04 11:48:14;;;;;;;;;1.00;1.00;;;;;;;;5044088;28;8896;-73
2021/05/04 11:50:43;;;;;;;;;2.50;0.00;;;;;;;;5045353;28;8916;-74
2021/05/04 11:53:14;;;;;;;;;0.00;0.00;;;;;;;;5044577;28;8893;-73
2021/05/04 11:55:42;;;;;;;;;0.25;0.25;;;;;;;;5045471;28;8866;-73
2021/05/04 11:58:10;;;;;;;;;0.25;0.25;;;;;;;;5027018;28;8886;-73
2021/05/04 12:00:39;;;;;;;;;2.00;0.00;;;;;;;;5047396;28;8796;-74
2021/05/04 12:03:07;;;;;;;;;0.00;0.00;;;;;;;;5065093;28;9013;-73
2021/05/04 12:05:34;;;;;;;;;0.00;0.00;;;;;;;;5044735;28;8896;-73
2021/05/04 12:08:02;;;;;;;;;0.00;0.00;;;;;;;;5045485;28;10077;-72
2021/05/04 12:10:34;;;;;;;;;3.00;0.00;;;;;;;;5055007;28;8872;-73
2021/05/04 12:13:04;;;;;;;;;0.00;0.00;;;;;;;;5064714;28;8933;-74
2021/05/04 12:15:32;;;;;;;;;0.00;0.00;;;;;;;;5064337;28;8856;-73
2021/05/04 12:18:18;;;;;;;;;0.50;0.00;;;;;;;;5064009;28;8886;-74
2021/05/04 12:20:47;;;;;;;;;0.00;0.00;;;;;;;;5054856;28;8878;-72
2021/05/04 12:23:24;;;;;;;;;1.00;1.00;;;;;;;;5044158;28;8890;-73
2021/05/04 12:25:54;;;;;;;;;1.75;0.50;;;;;;;;5044318;28;8870;-71
2021/05/04 12:28:22;;;;;;;;;0.00;0.00;;;;;;;;5044120;28;8854;-71
2021/05/04 12:30:52;;;;;;;;;1.50;0.00;;;;;;;;5049510;28;8843;-72
2021/05/04 12:33:21;;;;;;;;;1.75;1.00;;;;;;;;5060363;28;8842;-74
2021/05/04 12:35:55;;;;;;;;;0.00;0.00;;;;;;;;5026819;28;8882;-73
2021/05/04 12:38:24;;;;;;;;;0.50;0.50;;;;;;;;5053521;28;8891;-74
2021/05/04 12:41:02;;;;;;;;;1.25;1.00;;;;;;;;5043007;28;8926;-74
2021/05/04 12:43:30;;;;;;;;;0.00;0.00;;;;;;;;5063847;28;10273;-75
2021/05/04 12:46:17;;;;;;;;;0.50;0.50;;;;;;;;5046241;28;8848;-73
2021/05/04 12:48:46;;;;;;;;;1.75;1.75;;;;;;;;5053781;28;8875;-73
2021/05/04 12:51:15;;;;;;;;;1.00;1.00;;;;;;;;5063396;28;8860;-73
2021/05/04 12:53:45;;;;;;;;;0.00;0.00;;;;;;;;5063560;28;8872;-74
2021/05/04 12:56:14;;;;;;;;;1.00;1.00;;;;;;;;5044897;28;8939;-73
2021/05/04 12:59:05;;;;;;;;;1.00;0.00;;;;;;;;5043072;28;8863;-73
2021/05/04 13:01:39;;;;;;;;;0.00;0.00;;;;;;;;5017619;28;8785;-73
2021/05/04 13:04:14;;;;;;;;;2.00;0.00;;;;;;;;5051749;28;8904;-74
2021/05/04 13:06:48;;;;;;;;;2.25;1.75;;;;;;;;5062171;28;8933;-74
2021/05/04 13:09:27;;;;;;;;;0.00;0.00;;;;;;;;5063897;28;9023;-73
2021/05/04 13:21:00;;;;;;;;;1.50;0.25;;;;;;;;5029363;28;8878;-74
2021/05/04 13:32:06;;;;;;;;;1.00;1.00;;;;;;;;5060324;28;8805;-75
2021/05/04 13:34:38;;;;;;;;;0.00;0.00;;;;;;;;5050167;28;8859;-74
2021/05/04 13:37:10;;;;;;;;;0.75;0.50;;;;;;;;5042067;28;8948;-73
2021/05/04 13:48:02;;;;;;;;;0.25;0.25;;;;;;;;5043978;28;8921;-76
2021/05/04 13:50:29;;;;;;;;;2.25;1.00;;;;;;;;5042341;28;8872;-74
2021/05/04 13:52:57;;;;;;;;;2.00;0.75;;;;;;;;5043857;28;8880;-74
2021/05/04 13:55:24;;;;;;;;;3.50;0.50;;;;;;;;5057037;28;8959;-74
2021/05/04 13:57:54;;;;;;;;;2.00;1.00;;;;;;;;5062006;28;8888;-75
2021/05/04 14:00:26;;;;;;;;;4.25;1.25;;;;;;;;5055346;28;8854;-73
2021/05/04 14:03:00;;;;;;;;;0.75;0.25;;;;;;;;5056146;28;8866;-75
2021/05/04 14:08:35;;;;;;;;;0.80;0.80;;;;;;;;5033155;28;8851;-75
2021/05/04 14:27:43;;;;;;;;;0.50;0.50;;;;;;;;5061464;28;9010;-75
2021/05/04 14:30:11;;;;;;;;;0.00;0.00;;;;;;;;5043147;28;8840;-76
2021/05/04 14:32:38;;;;;;;;;3.50;0.00;;;;;;;;5060997;28;8872;-75
2021/05/04 14:35:09;;;;;;;;;0.50;0.50;;;;;;;;5059484;28;8864;-75
2021/05/04 14:37:44;;;;;;;;;2.00;0.00;;;;;;;;5057742;28;8856;-75
2021/05/04 14:40:18;;;;;;;;;1.00;1.00;;;;;;;;5058174;28;8892;-74
2021/05/04 14:55:34;;;;;;;;;2.75;1.50;;;;;;;;5062221;28;8867;-74
2021/05/04 14:57:01;;;;;;;;;2.75;2.75;;;;;;;;5046376;28;8901;-73
2021/05/04 14:59:31;;;;;;;;;2.50;2.50;;;;;;;;5043444;28;8935;-74
2021/05/04 15:01:58;;;;;;;;;0.75;0.00;;;;;;;;5045256;28;8775;-74
2021/05/04 15:04:24;;;;;;;;;0.00;0.00;;;;;;;;5045236;28;8874;-73
2021/05/04 15:06:51;;;;;;;;;7.50;4.25;;;;;;;;5046171;28;9005;-74
2021/05/04 15:09:19;;;;;;;;;3.25;3.25;;;;;;;;5045799;28;8859;-72
2021/05/04 15:11:47;;;;;;;;;0.75;0.75;;;;;;;;5044750;28;9013;-73
2021/05/04 15:14:22;;;;;;;;;0.50;0.50;;;;;;;;5045930;28;8878;-71
2021/05/04 15:16:51;;;;;;;;;0.00;0.00;;;;;;;;5044851;28;8897;-72
2021/05/04 15:22:04;;;;;;;;;0.00;0.00;;;;;;;;5032063;28;8881;-74
2021/05/04 15:24:31;;;;;;;;;0.00;0.00;;;;;;;;5045468;28;8858;-74
2021/05/04 15:26:59;;;;;;;;;0.00;0.00;;;;;;;;5046043;28;8846;-73
2021/05/04 15:29:27;;;;;;;;;0.75;0.75;;;;;;;;5044527;28;8878;-73
2021/05/04 15:31:58;;;;;;;;;0.00;0.00;;;;;;;;5044949;28;8870;-71
2021/05/04 15:34:25;;;;;;;;;0.00;0.00;;;;;;;;5044568;28;8913;-74
2021/05/04 15:36:52;;;;;;;;;0.75;0.75;;;;;;;;5045332;28;8944;-73
2021/05/04 15:39:19;;;;;;;;;1.00;0.00;;;;;;;;5045180;28;8862;-72
2021/05/04 15:41:46;;;;;;;;;0.00;0.00;;;;;;;;5045635;28;8997;-73
2021/05/04 15:44:14;;;;;;;;;1.00;0.00;;;;;;;;5045219;28;8856;-74
2021/05/04 15:46:47;;;;;;;;;0.00;0.00;;;;;;;;5043570;28;8870;-74
2021/05/04 15:49:20;;;;;;;;;0.00;0.00;;;;;;;;5028239;28;8867;-75
2021/05/04 15:52:19;;;;;;;;;0.00;0.00;;;;;;;;5044740;28;9767;-74
2021/05/04 15:55:16;;;;;;;;;0.00;0.00;;;;;;;;5031563;28;8877;-73
2021/05/04 16:00:46;;;;;;;;;0.00;0.00;;;;;;;;5053336;28;8790;-74
2021/05/04 16:03:24;;;;;;;;;0.00;0.00;;;;;;;;5024080;28;8993;-74
2021/05/04 16:08:41;;;;;;;;;0.00;0.00;;;;;;;;5055855;28;8852;-72
2021/05/04 16:11:08;;;;;;;;;0.00;0.00;;;;;;;;5061493;28;8875;-73
2021/05/04 16:13:35;;;;;;;;;0.50;0.00;;;;;;;;5057548;28;8860;-74
2021/05/04 16:16:04;;;;;;;;;0.00;0.00;;;;;;;;5040515;28;8870;-74